Portada
METAR-TAF:

METAR-TAF

Aeroports :

Hafar Al-Batin, Aràbia Saudita

latitud: 27-54N, longitud: 045-32E, altitud: 413 m

METAR: manca

Hora: 05:24 (02:24 UTC)

Pronòstic

L'informe es va fer fa 21 hores i 24 minuts, a les 05:00 UTC
Pronòstic vàlid del 01 a les 06 UTC al 01 a les 20 UTC
Vent 8 kt del Nord-Est
Visibilitat: 7000 m
Escasses núvols a una alçada de 3500 ft, Cumulonimbus.
Núvols disperses a una alçada de 4000 ft
Temporalment
l' 01 a les 06 UTC al 01 a les 18 UTC
Visibilitat: 4000 m
Cel ennuvolat a una alçada de 4000 ft
torb alta de pols, tempesta, pluja
Evolucionant progressivament
l' 01 a les 10 UTC al 01 a les 12 UTC
Vent 15 kt del Est

TAF: OEKK 010500Z 0106/0120 05008KT 7000 FEW035CB SCT040 TEMPO 0106/0118 4000 BLDU TSRA BKN040 BECMG 0110/0112 09015KT

Observacions i pronòstics meteorològics de més de 4000 aeroports (METAR i TAF).

Les estacions disponibles són els punts grocs i vermells al mapa.

Posi el ratolí al punt desitjat per veure el nom de l'estació.

Feu clic per veure les observacions i els pronòstics meteorològics.

Per canviar el mapa: feu clic els botons verds amb una creu de color negre per apropar; al botó verd amb un guió per allunyar la imatge; o en les fletxes verdes per a mapes adjacents.


METAR-TAF: